Weather at Vigan Airport

Public forecast

Using degrees Celsius for public forecast. Weather courtesy of forecast.io.

Closest aviation weather report (METAR) to Vigan Airport

Report is more than 2 hours old.

Closest report is Laoag International Airport, 38.7 nm (71.7 km) NNE. Retrieved 2020/09/30 12:00 UTC (3 hours ago):

RPLI 301200Z VRB01KT 9999 TS FEW017CB FEW018 BKN280 27/26 Q1007 NOSIG RMK A2974 CB E

Closest aviation forecast (TAF) to Vigan Airport

Closest forecast is Laoag International Airport, 38.7 nm (71.7 km) NNE. Retrieved 2020/09/30 12:00 UTC (3 hours ago):

TAF RPLI 301100Z 3012/0112 05007KT 9999 FEW018 BKN290 TEMPO 3012/3018 -SHRA FEW017CB SCT018 BKN080